createdAt,value
2022-12-23T00:01:33.058Z,3.16
2022-12-23T00:04:02.302Z,2.99
2022-12-23T00:06:31.123Z,2.90
2022-12-23T00:08:59.601Z,2.78
2022-12-23T00:11:30.117Z,2.67
2022-12-23T00:14:21.213Z,2.58
2022-12-23T00:16:53.078Z,2.45
2022-12-23T00:19:21.782Z,2.35
2022-12-23T00:21:50.003Z,2.18
2022-12-23T00:24:18.251Z,2.06
2022-12-23T00:26:46.605Z,1.95
2022-12-23T00:29:15.205Z,1.92
2022-12-23T00:31:43.403Z,1.86
2022-12-23T00:34:13.822Z,1.84
2022-12-23T00:36:42.141Z,1.79
2022-12-23T00:39:30.314Z,1.73
2022-12-23T00:42:16.076Z,1.70
2022-12-23T00:44:44.176Z,1.66
2022-12-23T00:47:32.390Z,1.58
2022-12-23T00:50:02.181Z,1.28
2022-12-23T00:52:31.398Z,1.36
2022-12-23T00:55:00.102Z,1.36
2022-12-23T00:57:28.661Z,1.34
2022-12-23T00:59:56.833Z,1.30
2022-12-23T01:02:42.534Z,1.24
2022-12-23T01:05:31.040Z,1.17
2022-12-23T01:07:59.445Z,1.11
2022-12-23T01:10:27.686Z,1.04
2022-12-23T01:12:56.031Z,0.96
2022-12-23T01:15:24.622Z,0.91
2022-12-23T01:17:52.853Z,0.82
2022-12-23T01:20:23.025Z,0.75
2022-12-23T01:22:51.578Z,0.69
2022-12-23T01:25:19.835Z,0.62
2022-12-23T01:27:47.982Z,0.57
2022-12-23T01:30:16.557Z,0.50
2022-12-23T01:32:44.852Z,0.42
2022-12-23T01:35:13.199Z,0.36
2022-12-23T01:37:42.858Z,0.31
2022-12-23T01:40:11.429Z,0.29
2022-12-23T01:42:44.318Z,0.24
2022-12-23T01:45:17.152Z,0.20
2022-12-23T01:47:47.385Z,0.16
2022-12-23T01:50:17.416Z,0.27
2022-12-23T01:52:51.337Z,0.38
2022-12-23T01:55:21.050Z,0.54
2022-12-23T01:57:49.918Z,0.68
2022-12-23T02:00:35.622Z,0.81
2022-12-23T02:03:21.466Z,0.96
2022-12-23T02:05:52.839Z,1.07
2022-12-23T02:08:39.929Z,1.15
2022-12-23T02:11:32.807Z,1.27
2022-12-23T02:14:27.017Z,1.34
2022-12-23T02:17:01.370Z,1.47
2022-12-23T02:19:41.570Z,1.55
2022-12-23T02:22:19.949Z,1.64
2022-12-23T02:25:10.118Z,1.75
2022-12-23T02:27:47.241Z,1.87
2022-12-23T02:30:30.352Z,1.96
2022-12-23T02:33:27.193Z,2.07
2022-12-23T02:36:00.028Z,2.17
2022-12-23T02:38:31.102Z,2.24
2022-12-23T02:41:06.470Z,2.31
2022-12-23T02:43:41.408Z,2.35
2022-12-23T02:46:12.463Z,2.40
2022-12-23T02:48:47.180Z,2.44
2022-12-23T02:51:16.564Z,2.49
2022-12-23T02:53:48.006Z,2.51
2022-12-23T02:56:18.313Z,2.55
2022-12-23T02:58:48.960Z,2.57
2022-12-23T03:01:17.800Z,2.61
2022-12-23T03:03:49.176Z,2.62
2022-12-23T03:06:19.458Z,2.62
2022-12-23T03:08:47.723Z,2.68
2022-12-23T03:11:16.851Z,2.73
2022-12-23T03:13:53.863Z,2.80
2022-12-23T03:16:24.314Z,2.87
2022-12-23T03:19:01.289Z,2.94
2022-12-23T03:21:32.761Z,3.00
2022-12-23T03:24:07.396Z,3.06
2022-12-23T03:26:38.099Z,3.10
2022-12-23T03:29:10.008Z,3.15
2022-12-23T03:31:39.008Z,3.20
2022-12-23T03:34:11.844Z,3.25
2022-12-23T03:36:42.601Z,3.33
2022-12-23T03:39:13.860Z,3.37
2022-12-23T03:41:43.777Z,3.44
2022-12-23T03:44:14.740Z,3.49
2022-12-23T03:46:47.951Z,3.54
2022-12-23T03:49:21.350Z,3.57
2022-12-23T03:51:50.635Z,3.64
2022-12-23T03:54:21.121Z,3.71
2022-12-23T03:56:52.650Z,3.77
2022-12-23T03:59:22.667Z,3.86
2022-12-23T04:01:55.531Z,3.92
2022-12-23T04:04:27.199Z,3.98
2022-12-23T04:06:57.947Z,4.03
2022-12-23T04:09:28.203Z,4.07
2022-12-23T04:11:56.801Z,4.13
2022-12-23T04:14:25.236Z,4.12
2022-12-23T04:16:55.343Z,4.14
2022-12-23T04:19:23.507Z,4.15
2022-12-23T04:21:53.430Z,4.17
2022-12-23T04:24:21.511Z,4.16
2022-12-23T04:26:49.745Z,4.21
2022-12-23T04:29:18.220Z,4.21
2022-12-23T04:31:46.384Z,4.26
2022-12-23T04:34:14.631Z,4.27
2022-12-23T04:36:42.749Z,4.30
2022-12-23T04:39:12.528Z,4.32
2022-12-23T04:41:40.662Z,4.33
2022-12-23T04:44:09.506Z,4.34
2022-12-23T04:46:38.037Z,4.36
2022-12-23T04:49:06.449Z,4.40
2022-12-23T04:51:34.765Z,4.39
2022-12-23T04:54:02.721Z,4.41
2022-12-23T04:56:32.334Z,4.45
2022-12-23T04:59:02.400Z,4.50
2022-12-23T05:01:30.673Z,4.54
2022-12-23T05:03:58.816Z,4.60
2022-12-23T05:06:26.963Z,4.60
2022-12-23T05:08:55.182Z,4.66
2022-12-23T05:11:23.363Z,4.74
2022-12-23T05:13:53.200Z,4.80
2022-12-23T05:16:21.399Z,4.84
2022-12-23T05:18:50.019Z,4.93
2022-12-23T05:21:18.323Z,4.98
2022-12-23T05:23:46.522Z,5.04
2022-12-23T05:26:14.818Z,5.12
2022-12-23T05:28:45.623Z,5.16
2022-12-23T05:31:15.733Z,5.23
2022-12-23T05:33:44.333Z,5.28
2022-12-23T05:36:12.899Z,5.32
2022-12-23T05:38:41.454Z,5.33
2022-12-23T05:41:09.785Z,5.40
2022-12-23T05:43:37.973Z,5.45
2022-12-23T05:46:06.289Z,5.47
2022-12-23T05:48:35.873Z,5.51
2022-12-23T05:51:04.490Z,5.53
2022-12-23T05:53:32.722Z,5.55
2022-12-23T05:56:04.673Z,5.57
2022-12-23T05:58:32.989Z,5.58
2022-12-23T06:01:02.666Z,5.62
2022-12-23T06:03:30.892Z,5.64
2022-12-23T06:06:00.599Z,5.65
2022-12-23T06:08:28.835Z,5.66
2022-12-23T06:10:56.966Z,5.67
2022-12-23T06:13:25.126Z,5.69
2022-12-23T06:15:53.277Z,5.72
2022-12-23T06:18:21.938Z,5.74
2022-12-23T06:20:50.279Z,5.77
2022-12-23T06:23:19.966Z,5.79
2022-12-23T06:25:48.173Z,5.78
2022-12-23T06:28:16.599Z,5.78
2022-12-23T06:30:44.903Z,5.82
2022-12-23T06:33:13.061Z,5.86
2022-12-23T06:35:41.061Z,5.92
2022-12-23T06:38:12.255Z,5.95
2022-12-23T06:40:42.144Z,5.98
2022-12-23T06:43:11.534Z,6.00
2022-12-23T06:45:39.623Z,6.02
2022-12-23T06:48:08.677Z,6.03
2022-12-23T06:50:36.919Z,6.09
2022-12-23T06:53:05.105Z,6.11
2022-12-23T06:55:33.472Z,6.13
2022-12-23T06:58:03.249Z,6.19
2022-12-23T07:00:32.029Z,6.22
2022-12-23T07:03:00.418Z,6.26
2022-12-23T07:05:36.499Z,6.27
2022-12-23T07:08:05.617Z,6.30
2022-12-23T07:10:34.868Z,6.33
2022-12-23T07:13:05.028Z,6.36
2022-12-23T07:15:33.468Z,6.39
2022-12-23T07:18:01.820Z,6.40
2022-12-23T07:20:30.179Z,6.42
2022-12-23T07:22:58.329Z,6.45
2022-12-23T07:25:26.499Z,6.43
2022-12-23T07:27:55.510Z,6.43
2022-12-23T07:30:25.852Z,6.42
2022-12-23T07:32:54.480Z,6.43
2022-12-23T07:35:22.801Z,6.45
2022-12-23T07:37:52.330Z,6.47
2022-12-23T07:40:20.454Z,6.47
2022-12-23T07:42:49.805Z,6.51
2022-12-23T07:45:18.244Z,6.53
2022-12-23T07:47:47.885Z,6.54
2022-12-23T07:50:17.327Z,6.57
2022-12-23T07:52:45.565Z,6.57
2022-12-23T07:55:13.912Z,6.58
2022-12-23T07:57:42.364Z,6.61
2022-12-23T08:00:11.458Z,6.61
2022-12-23T08:02:43.672Z,6.67
2022-12-23T08:05:14.221Z,6.69
2022-12-23T08:07:42.743Z,6.71
2022-12-23T08:10:11.275Z,6.75
2022-12-23T08:12:39.802Z,6.80
2022-12-23T08:15:09.452Z,6.82
2022-12-23T08:17:37.971Z,6.85
2022-12-23T08:20:06.541Z,6.85
2022-12-23T08:22:36.271Z,6.87
2022-12-23T08:25:04.871Z,6.88
2022-12-23T08:27:32.985Z,6.91
2022-12-23T08:30:01.246Z,6.94
2022-12-23T08:32:29.553Z,6.95
2022-12-23T08:34:58.215Z,6.99
2022-12-23T08:37:26.536Z,7.00
2022-12-23T08:39:56.247Z,7.03
2022-12-23T08:42:24.570Z,7.04
2022-12-23T08:44:52.759Z,7.04
2022-12-23T08:47:20.995Z,7.08
2022-12-23T08:49:49.494Z,7.11
2022-12-23T08:52:17.727Z,7.12
2022-12-23T08:54:46.242Z,7.14
2022-12-23T08:57:16.457Z,7.16
2022-12-23T08:59:44.733Z,7.15
2022-12-23T09:02:13.452Z,7.19
2022-12-23T09:04:41.914Z,7.23
2022-12-23T09:07:10.984Z,7.24
2022-12-23T09:09:39.265Z,7.30
2022-12-23T09:12:07.487Z,7.30
2022-12-23T09:14:37.379Z,7.36
2022-12-23T09:17:06.045Z,7.38
2022-12-23T09:19:34.183Z,7.39
2022-12-23T09:22:02.228Z,7.40
2022-12-23T09:24:30.546Z,7.46
2022-12-23T09:26:58.691Z,7.47
2022-12-23T09:29:26.803Z,7.47
2022-12-23T09:31:56.520Z,7.50
2022-12-23T09:34:24.684Z,7.48
2022-12-23T09:36:55.479Z,7.54
2022-12-23T09:39:24.447Z,7.54
2022-12-23T09:42:01.558Z,7.57
2022-12-23T09:44:43.145Z,7.54
2022-12-23T09:47:15.745Z,7.55
2022-12-23T09:49:47.456Z,7.59
2022-12-23T09:52:20.764Z,7.57
2022-12-23T09:54:51.465Z,7.54
2022-12-23T09:57:22.513Z,7.54
2022-12-23T10:00:02.779Z,7.55
2022-12-23T10:02:43.086Z,7.56
2022-12-23T10:05:18.656Z,7.61
2022-12-23T10:07:50.775Z,7.61
2022-12-23T10:10:21.700Z,7.67
2022-12-23T10:12:52.449Z,7.70
2022-12-23T10:15:23.544Z,7.73
2022-12-23T10:17:56.150Z,7.78
2022-12-23T10:20:30.903Z,7.84
2022-12-23T10:23:00.455Z,7.90
2022-12-23T10:25:33.623Z,7.94
2022-12-23T10:28:02.139Z,7.98
2022-12-23T10:33:24.094Z,8.07
2022-12-23T10:35:58.569Z,8.10
2022-12-23T10:38:36.962Z,8.09
2022-12-23T10:41:09.999Z,8.11
2022-12-23T10:43:42.732Z,8.11
2022-12-23T10:46:17.016Z,8.12
2022-12-23T10:48:52.054Z,8.13
2022-12-23T10:51:22.604Z,8.10
2022-12-23T10:53:52.629Z,8.12
2022-12-23T10:56:22.017Z,8.08
2022-12-23T10:58:51.971Z,8.05
2022-12-23T11:01:26.596Z,8.05
2022-12-23T11:04:00.835Z,8.01
2022-12-23T11:06:36.528Z,8.02
2022-12-23T11:09:06.471Z,8.08
2022-12-23T11:11:53.688Z,8.10
2022-12-23T11:14:35.922Z,8.17
2022-12-23T11:17:06.397Z,8.19
2022-12-23T11:19:36.004Z,8.23
2022-12-23T11:22:05.012Z,8.27
2022-12-23T11:24:39.601Z,8.28
2022-12-23T11:27:16.207Z,8.29
2022-12-23T11:29:46.950Z,8.32
2022-12-23T11:32:17.893Z,8.33
2022-12-23T11:34:48.563Z,8.34
2022-12-23T11:37:29.968Z,8.38
2022-12-23T11:39:58.652Z,8.32
2022-12-23T11:42:29.575Z,8.35
2022-12-23T11:44:59.985Z,8.34
2022-12-23T11:47:31.169Z,8.30
2022-12-23T11:50:03.930Z,8.29
2022-12-23T11:52:33.705Z,8.30
2022-12-23T11:55:03.103Z,8.32
2022-12-23T11:57:35.043Z,8.30
2022-12-23T12:00:06.433Z,8.34
2022-12-23T12:02:37.936Z,8.33
2022-12-23T12:05:14.984Z,8.32
2022-12-23T12:07:43.642Z,8.44
2022-12-23T12:10:17.622Z,8.47
2022-12-23T12:12:51.348Z,8.54
2022-12-23T12:15:26.467Z,8.61
2022-12-23T12:17:56.884Z,8.69
2022-12-23T12:20:29.372Z,8.75
2022-12-23T12:22:59.452Z,8.80
2022-12-23T12:25:39.703Z,8.99
2022-12-23T12:28:12.537Z,9.25
2022-12-23T12:30:52.031Z,9.38
2022-12-23T12:33:23.249Z,9.51
2022-12-23T12:36:00.241Z,9.64
2022-12-23T12:38:33.198Z,9.78
2022-12-23T12:41:03.598Z,9.92
2022-12-23T12:43:32.767Z,10.03
2022-12-23T12:46:07.813Z,10.11
2022-12-23T12:48:40.459Z,10.20
2022-12-23T12:51:15.120Z,10.35
2022-12-23T12:53:48.384Z,10.44
2022-12-23T12:56:20.126Z,10.52
2022-12-23T12:58:48.579Z,10.57
2022-12-23T13:01:25.265Z,10.33
2022-12-23T13:04:07.313Z,10.33
2022-12-23T13:06:42.654Z,10.12
2022-12-23T13:09:15.622Z,10.03
2022-12-23T13:11:47.524Z,9.94
2022-12-23T13:14:21.554Z,9.87
2022-12-23T13:16:54.043Z,9.77
2022-12-23T13:19:31.198Z,9.77
2022-12-23T13:22:03.840Z,9.70
2022-12-23T13:24:35.887Z,9.67
2022-12-23T13:27:08.362Z,9.63
2022-12-23T13:29:57.589Z,9.55
2022-12-23T13:32:32.642Z,9.49
2022-12-23T13:35:04.955Z,9.49
2022-12-23T13:37:40.995Z,9.44
2022-12-23T13:40:26.939Z,9.44
2022-12-23T13:42:57.096Z,9.46
2022-12-23T13:45:27.583Z,9.45
2022-12-23T13:48:05.104Z,9.44
2022-12-23T13:50:37.075Z,9.43
2022-12-23T13:53:15.156Z,9.43
2022-12-23T13:55:53.654Z,9.46
2022-12-23T13:58:23.160Z,9.40
2022-12-23T14:00:58.770Z,9.45
2022-12-23T14:03:33.415Z,9.49
2022-12-23T14:06:19.697Z,9.49
2022-12-23T14:08:49.712Z,9.51
2022-12-23T14:11:20.166Z,9.45
2022-12-23T14:13:55.266Z,9.49
2022-12-23T14:16:38.537Z,9.44
2022-12-23T14:19:15.787Z,9.46
2022-12-23T14:21:48.780Z,9.43
2022-12-23T14:24:31.777Z,9.47
2022-12-23T14:27:27.079Z,9.53
2022-12-23T14:30:06.810Z,9.52
2022-12-23T14:32:40.975Z,9.46
2022-12-23T14:35:33.375Z,9.49
2022-12-23T14:38:24.933Z,9.46
2022-12-23T14:41:02.299Z,9.41
2022-12-23T14:43:51.407Z,9.31
2022-12-23T14:46:38.308Z,9.38
2022-12-23T14:49:38.793Z,9.40
2022-12-23T14:52:27.346Z,9.34
2022-12-23T14:55:28.557Z,9.43
2022-12-23T14:57:44.460Z,9.37
2022-12-23T15:00:14.313Z,9.35
2022-12-23T15:02:42.522Z,9.32
2022-12-23T15:05:11.128Z,9.32
2022-12-23T15:07:41.677Z,9.25
2022-12-23T15:10:17.184Z,9.14
2022-12-23T15:12:48.433Z,9.09
2022-12-23T15:15:19.840Z,9.02
2022-12-23T15:17:48.364Z,8.94
2022-12-23T15:20:19.838Z,8.73
2022-12-23T15:22:48.586Z,8.75
2022-12-23T15:25:21.396Z,8.62
2022-12-23T15:27:51.867Z,8.63
2022-12-23T15:30:25.623Z,8.48
2022-12-23T15:32:59.235Z,8.46
2022-12-23T15:35:29.423Z,8.42
2022-12-23T15:37:58.309Z,8.33
2022-12-23T15:40:28.233Z,8.31
2022-12-23T15:42:56.429Z,8.27
2022-12-23T15:45:32.756Z,8.22
2022-12-23T15:48:01.594Z,8.17
2022-12-23T15:50:30.330Z,8.18
2022-12-23T15:53:06.124Z,8.12
2022-12-23T15:55:35.883Z,8.04
2022-12-23T15:58:05.011Z,8.07
2022-12-23T16:00:38.309Z,8.06
2022-12-23T16:03:13.627Z,8.06
2022-12-23T16:05:46.174Z,8.04
2022-12-23T16:08:29.024Z,8.04
2022-12-23T16:11:06.702Z,7.99
2022-12-23T16:13:35.266Z,8.01
2022-12-23T16:16:21.252Z,8.00
2022-12-23T16:18:49.528Z,8.00
2022-12-23T16:21:18.092Z,8.03
2022-12-23T16:23:50.436Z,8.02
2022-12-23T16:26:19.165Z,7.95
2022-12-23T16:28:48.484Z,7.95
2022-12-23T16:31:18.117Z,8.00
2022-12-23T16:33:50.666Z,7.99
2022-12-23T16:36:21.555Z,8.03
2022-12-23T16:38:51.560Z,8.05
2022-12-23T16:41:20.324Z,8.06
2022-12-23T16:43:52.371Z,8.05
2022-12-23T16:46:22.584Z,8.10
2022-12-23T16:48:53.508Z,8.10
2022-12-23T16:51:24.892Z,8.07
2022-12-23T16:53:55.206Z,8.10
2022-12-23T16:56:24.989Z,8.12
2022-12-23T16:58:53.220Z,8.10
2022-12-23T17:01:23.704Z,8.05
2022-12-23T17:03:53.760Z,7.95
2022-12-23T17:06:21.925Z,7.96
2022-12-23T17:08:50.758Z,7.89
2022-12-23T17:11:20.378Z,7.81
2022-12-23T17:13:48.751Z,7.70
2022-12-23T17:16:20.015Z,7.63
2022-12-23T17:18:48.279Z,7.50
2022-12-23T17:21:21.771Z,7.45
2022-12-23T17:23:50.737Z,7.39
2022-12-23T17:26:19.885Z,7.23
2022-12-23T17:28:48.227Z,7.18
2022-12-23T17:31:26.002Z,7.19
2022-12-23T17:33:55.436Z,7.15
2022-12-23T17:36:26.458Z,7.11
2022-12-23T17:39:00.348Z,7.14
2022-12-23T17:41:30.172Z,7.11
2022-12-23T17:43:58.855Z,7.05
2022-12-23T17:46:28.700Z,7.00
2022-12-23T17:48:59.292Z,6.99
2022-12-23T17:51:29.597Z,6.98
2022-12-23T17:53:58.924Z,6.97
2022-12-23T17:56:28.194Z,7.01
2022-12-23T17:58:56.432Z,7.01
2022-12-23T18:01:25.666Z,7.07
2022-12-23T18:03:54.618Z,7.08
2022-12-23T18:06:23.875Z,7.13
2022-12-23T18:08:53.981Z,7.11
2022-12-23T18:11:23.914Z,7.13
2022-12-23T18:13:53.571Z,7.14
2022-12-23T18:16:21.822Z,7.18
2022-12-23T18:18:50.104Z,7.24
2022-12-23T18:21:21.823Z,7.31
2022-12-23T18:23:50.494Z,7.34
2022-12-23T18:26:20.150Z,7.35
2022-12-23T18:28:48.612Z,7.39
2022-12-23T18:31:17.674Z,7.41
2022-12-23T18:33:46.106Z,7.48
2022-12-23T18:36:21.518Z,7.53
2022-12-23T18:38:49.843Z,7.58
2022-12-23T18:41:17.982Z,7.56
2022-12-23T18:43:47.832Z,7.56
2022-12-23T18:46:16.078Z,7.55
2022-12-23T18:48:44.340Z,7.57
2022-12-23T18:51:14.819Z,7.56
2022-12-23T18:53:43.752Z,7.54
2022-12-23T18:56:13.702Z,7.57
2022-12-23T18:58:41.900Z,7.54
2022-12-23T19:01:14.107Z,7.56
2022-12-23T19:03:42.946Z,7.54
2022-12-23T19:06:13.496Z,7.59
2022-12-23T19:08:42.488Z,7.55
2022-12-23T19:11:12.045Z,7.57
2022-12-23T19:13:40.525Z,7.52
2022-12-23T19:16:08.740Z,7.51
2022-12-23T19:18:38.408Z,7.47
2022-12-23T19:21:06.817Z,7.44
2022-12-23T19:23:35.450Z,7.39
2022-12-23T19:26:06.148Z,7.42
2022-12-23T19:28:34.528Z,7.38
2022-12-23T19:31:07.537Z,7.37
2022-12-23T19:33:38.997Z,7.32
2022-12-23T19:36:18.613Z,7.31
2022-12-23T19:38:49.728Z,7.33
2022-12-23T19:41:18.554Z,7.31
2022-12-23T19:43:47.314Z,7.33
2022-12-23T19:46:16.399Z,7.30
2022-12-23T19:48:50.914Z,7.31
2022-12-23T19:51:19.867Z,7.25
2022-12-23T19:53:50.612Z,7.27
2022-12-23T19:56:21.233Z,7.24
2022-12-23T19:58:50.438Z,7.14
2022-12-23T20:01:20.131Z,7.09
2022-12-23T20:03:50.245Z,6.97
2022-12-23T20:06:20.059Z,6.90
2022-12-23T20:08:49.032Z,6.84
2022-12-23T20:11:17.957Z,6.80
2022-12-23T20:13:46.497Z,6.72
2022-12-23T20:16:14.868Z,6.70
2022-12-23T20:18:43.054Z,6.66
2022-12-23T20:21:12.814Z,6.64
2022-12-23T20:23:41.237Z,6.61
2022-12-23T20:26:10.052Z,6.58
2022-12-23T20:28:38.238Z,6.65
2022-12-23T20:31:09.083Z,6.64
2022-12-23T20:33:37.554Z,6.69
2022-12-23T20:36:07.306Z,6.71
2022-12-23T20:38:37.397Z,6.72
2022-12-23T20:41:05.711Z,6.78
2022-12-23T20:43:34.909Z,6.79
2022-12-23T20:46:03.281Z,6.74
2022-12-23T20:48:34.457Z,6.70
2022-12-23T20:51:05.197Z,6.77
2022-12-23T20:53:33.697Z,6.75
2022-12-23T20:56:04.476Z,6.76
2022-12-23T20:58:50.403Z,6.73
2022-12-23T21:01:20.843Z,6.77
2022-12-23T21:03:49.629Z,6.75
2022-12-23T21:06:17.775Z,6.68
2022-12-23T21:08:45.930Z,6.70
2022-12-23T21:11:15.858Z,6.72
2022-12-23T21:13:44.176Z,6.68
2022-12-23T21:16:13.072Z,6.64
2022-12-23T21:18:42.150Z,6.57
2022-12-23T21:21:10.702Z,6.55
2022-12-23T21:23:39.721Z,6.55
2022-12-23T21:26:09.161Z,6.54
2022-12-23T21:28:39.753Z,6.45
2022-12-23T21:31:08.527Z,6.43
2022-12-23T21:33:38.163Z,6.34
2022-12-23T21:36:07.443Z,6.28
2022-12-23T21:38:36.514Z,6.22
2022-12-23T21:41:06.599Z,6.15
2022-12-23T21:43:35.017Z,6.09
2022-12-23T21:46:05.682Z,6.09
2022-12-23T21:48:34.977Z,6.10
2022-12-23T21:51:07.176Z,6.02
2022-12-23T21:53:35.715Z,6.01
2022-12-23T21:56:05.034Z,5.96
2022-12-23T21:58:33.417Z,5.92
2022-12-23T22:01:02.741Z,5.85
2022-12-23T22:03:32.401Z,5.78
2022-12-23T22:06:09.947Z,5.74
2022-12-23T22:08:39.222Z,5.68
2022-12-23T22:11:08.798Z,5.68
2022-12-23T22:13:37.189Z,5.66
2022-12-23T22:16:06.448Z,5.60
2022-12-23T22:18:36.329Z,5.58
2022-12-23T22:21:05.573Z,5.49
2022-12-23T22:23:35.120Z,5.44
2022-12-23T22:26:03.651Z,5.39
2022-12-23T22:28:32.347Z,5.38
2022-12-23T22:31:02.840Z,5.31
2022-12-23T22:33:32.411Z,5.25
2022-12-23T22:36:02.632Z,5.27
2022-12-23T22:38:31.015Z,5.20
2022-12-23T22:40:59.363Z,5.19
2022-12-23T22:43:27.608Z,5.13
2022-12-23T22:45:59.277Z,5.09
2022-12-23T22:48:29.039Z,5.10
2022-12-23T22:51:04.296Z,5.10
2022-12-23T22:53:32.598Z,5.11
2022-12-23T22:56:01.347Z,5.07
2022-12-23T22:58:30.207Z,5.07
2022-12-23T23:00:58.939Z,5.10
2022-12-23T23:03:27.791Z,5.15
2022-12-23T23:06:00.007Z,5.22
2022-12-23T23:08:30.195Z,5.24
2022-12-23T23:10:59.171Z,5.21
2022-12-23T23:13:28.792Z,5.24
2022-12-23T23:15:57.909Z,5.25
2022-12-23T23:18:27.188Z,5.28
2022-12-23T23:20:55.605Z,5.30
2022-12-23T23:23:23.915Z,5.33
2022-12-23T23:25:53.605Z,5.39
2022-12-23T23:28:21.819Z,5.35
2022-12-23T23:31:03.611Z,5.40
2022-12-23T23:33:38.431Z,5.44
2022-12-23T23:36:07.160Z,5.47
2022-12-23T23:38:35.577Z,5.49
2022-12-23T23:41:05.630Z,5.52
2022-12-23T23:43:33.905Z,5.48
2022-12-23T23:46:02.215Z,5.49
2022-12-23T23:48:30.478Z,5.45
2022-12-23T23:51:03.950Z,5.36
2022-12-23T23:53:32.284Z,5.32
2022-12-23T23:56:07.202Z,5.26
2022-12-23T23:58:36.160Z,5.19
